Time;durP1;ratioP1;P1;durP2;ratioP2;P2;SDS_P1;SDS_P2;PMS_P1;PMS_P2;Temp;Humidity;BMP_temperature;BMP_pressure;BME280_temperature;BME280_humidity;BME280_pressure;Samples;Min_cycle;Max_cycle;Signal;HPM_P1;HPM_P2
2023/01/03 00:02:05;;;;;;;34.55;18.77;;;;;;;12.69;60.57;102574.66;5000050;28;20034;-75
2023/01/03 00:04:30;;;;;;;38.50;18.20;;;;;;;12.90;59.48;102584.53;5014951;28;20505;-73
2023/01/03 00:06:56;;;;;;;39.53;19.05;;;;;;;13.47;58.16;102577.00;5013417;28;20125;-73
2023/01/03 00:09:23;;;;;;;33.40;18.48;;;;;;;13.56;57.58;102577.66;5018392;28;20395;-74
2023/01/03 00:14:37;;;;;;;37.40;20.52;;;;;;;12.93;58.63;102581.47;5007730;28;20058;-73
2023/01/03 00:17:22;;;;;;;38.63;20.35;;;;;;;13.36;57.69;102582.97;5002674;28;20041;-74
2023/01/03 00:19:47;;;;;;;30.92;18.25;;;;;;;13.30;57.84;102580.25;5002499;28;20050;-73
2023/01/03 00:22:14;;;;;;;37.20;19.65;;;;;;;12.91;58.19;102587.03;5009881;28;20036;-73
2023/01/03 00:24:40;;;;;;;38.05;19.77;;;;;;;12.93;58.64;102590.38;5010233;28;20031;-74
2023/01/03 00:27:05;;;;;;;40.65;20.67;;;;;;;13.00;58.74;102588.56;5009692;28;20512;-73
2023/01/03 00:29:30;;;;;;;41.20;21.40;;;;;;;12.97;58.66;102591.66;5006615;28;20038;-74
2023/01/03 00:31:56;;;;;;;46.90;21.58;;;;;;;12.85;59.33;102592.41;5008167;28;20462;-75
2023/01/03 00:34:22;;;;;;;41.30;22.73;;;;;;;13.14;58.15;102592.22;5013284;28;20081;-74
2023/01/03 00:36:47;;;;;;;43.60;21.73;;;;;;;13.18;57.96;102588.91;5012231;28;20038;-73
2023/01/03 00:39:13;;;;;;;44.35;23.40;;;;;;;13.19;57.33;102593.28;5001712;28;20042;-73
2023/01/03 00:41:39;;;;;;;46.38;23.17;;;;;;;13.41;56.58;102596.69;4989035;28;20042;-74
2023/01/03 00:44:05;;;;;;;36.08;20.00;;;;;;;13.12;56.78;102596.97;5005839;28;20209;-74
2023/01/03 00:46:48;;;;;;;38.42;21.42;;;;;;;12.70;58.94;102605.16;5006449;28;20034;-73
2023/01/03 00:49:14;;;;;;;44.78;23.85;;;;;;;12.89;57.95;102608.00;5015203;28;20037;-72
2023/01/03 00:51:40;;;;;;;40.92;22.83;;;;;;;13.21;56.98;102599.31;5009438;28;20193;-75
2023/01/03 00:54:08;;;;;;;42.63;21.42;;;;;;;13.33;55.92;102602.28;5012247;28;20026;-73
2023/01/03 00:56:36;;;;;;;41.70;21.40;;;;;;;13.17;56.34;102600.72;5009572;28;20045;-74
2023/01/03 00:59:02;;;;;;;40.58;21.02;;;;;;;13.04;56.01;102602.53;5012360;28;20030;-73
2023/01/03 01:01:34;;;;;;;40.30;21.42;;;;;;;12.93;56.97;102606.56;5014571;28;20440;-74
2023/01/03 01:04:07;;;;;;;46.15;23.52;;;;;;;12.95;57.22;102603.69;5010496;28;20026;-72
2023/01/03 01:06:36;;;;;;;36.33;21.48;;;;;;;12.70;57.44;102607.84;5009484;28;20490;-76
2023/01/03 01:09:04;;;;;;;35.42;20.85;;;;;;;12.87;57.17;102612.78;5007427;28;20030;-73
2023/01/03 01:11:30;;;;;;;42.72;23.40;;;;;;;12.91;57.01;102607.81;5007904;28;20491;-74
2023/01/03 01:13:56;;;;;;;47.67;23.38;;;;;;;13.11;56.20;102611.47;4991756;28;20041;-74
2023/01/03 01:16:27;;;;;;;46.20;23.80;;;;;;;12.90;57.02;102616.94;4996428;28;20042;-74
2023/01/03 01:18:54;;;;;;;47.67;23.17;;;;;;;12.84;57.02;102621.25;5014239;28;20041;-74
2023/01/03 01:21:24;;;;;;;38.90;22.65;;;;;;;12.86;56.67;102626.44;5014730;28;20050;-73
2023/01/03 01:23:51;;;;;;;39.55;21.42;;;;;;;12.90;56.58;102625.88;5014845;28;20036;-72
2023/01/03 01:26:18;;;;;;;40.70;22.48;;;;;;;12.90;56.70;102623.16;5013066;28;20051;-74
2023/01/03 01:28:44;;;;;;;50.92;23.90;;;;;;;12.57;57.72;102634.72;5015184;28;20081;-73
2023/01/03 01:31:13;;;;;;;46.00;25.02;;;;;;;12.86;57.05;102631.84;5014886;28;20042;-73
2023/01/03 01:33:57;;;;;;;48.42;25.05;;;;;;;12.77;57.88;102636.56;5014087;28;20034;-74
2023/01/03 01:36:26;;;;;;;46.72;24.58;;;;;;;12.98;56.35;102631.13;5014398;28;20060;-74
2023/01/03 01:38:55;;;;;;;44.60;22.80;;;;;;;12.87;56.51;102636.22;5014351;28;20112;-73
2023/01/03 01:44:36;;;;;;;43.40;22.33;;;;;;;12.78;56.90;102643.63;5013764;28;20041;-73
2023/01/03 01:44:44;;;;;;;43.58;21.65;;;;;;;12.83;56.14;102646.56;5014758;28;20097;-72
2023/01/03 01:47:39;;;;;;;43.63;22.90;;;;;;;12.79;56.35;102645.31;5013389;28;20042;-73
2023/01/03 01:50:11;;;;;;;42.10;21.70;;;;;;;12.78;56.41;102646.31;4934631;29;20543;-72
2023/01/03 01:52:40;;;;;;;35.35;20.88;;;;;;;12.64;56.52;102652.63;4934451;29;20094;-72
2023/01/03 01:55:11;;;;;;;38.40;22.90;;;;;;;12.64;56.40;102658.03;4918378;29;20508;-73
2023/01/03 01:57:38;;;;;;;43.55;23.92;;;;;;;12.53;56.48;102657.72;4934074;29;20066;-74
2023/01/03 02:00:06;;;;;;;35.35;22.00;;;;;;;12.29;57.61;102656.25;4933981;29;20076;-73
2023/01/03 02:02:32;;;;;;;39.40;21.33;;;;;;;12.15;58.13;102655.28;4933425;29;20511;-74
2023/01/03 02:04:59;;;;;;;44.28;24.17;;;;;;;12.32;57.37;102661.25;4934513;29;20043;-73
2023/01/03 02:07:25;;;;;;;42.00;23.75;;;;;;;11.87;58.93;102658.91;4933818;29;20139;-73
2023/01/03 02:09:54;;;;;;;42.35;23.17;;;;;;;12.31;57.46;102662.28;4933334;29;20501;-74
2023/01/03 02:15:29;;;;;;;46.38;26.00;;;;;;;12.14;57.96;102660.84;4922717;29;20058;-73
2023/01/03 02:18:12;;;;;;;47.35;24.13;;;;;;;12.16;57.25;102659.66;4933449;29;20043;-72
2023/01/03 02:21:08;;;;;;;39.55;23.33;;;;;;;12.34;56.72;102660.03;4933941;29;20055;-73
2023/01/03 02:23:46;;;;;;;40.35;25.77;;;;;;;12.47;56.15;102658.47;4933725;29;20422;-74
2023/01/03 02:26:43;;;;;;;45.65;24.95;;;;;;;12.45;56.17;102664.06;4946275;28;20145;-74
2023/01/03 02:29:29;;;;;;;45.70;27.70;;;;;;;12.36;56.69;102668.75;5012827;28;20057;-73
2023/01/03 02:32:05;;;;;;;45.00;24.42;;;;;;;12.20;56.59;102676.25;5013282;28;20501;-73
2023/01/03 02:34:38;;;;;;;50.53;23.98;;;;;;;12.29;56.37;102665.16;5013047;28;20073;-74
2023/01/03 02:37:38;;;;;;;40.90;25.13;;;;;;;12.17;56.44;102674.78;5013055;28;20512;-73
2023/01/03 02:40:25;;;;;;;46.10;25.42;;;;;;;12.20;56.72;102663.63;4933025;29;20050;-72
2023/01/03 02:43:18;;;;;;;43.85;26.10;;;;;;;12.21;56.66;102664.44;4933032;29;20103;-73
2023/01/03 02:46:11;;;;;;;48.90;25.45;;;;;;;12.16;56.30;102666.88;4876350;29;20041;-74
2023/01/03 02:49:18;;;;;;;41.97;23.98;;;;;;;11.89;57.04;102668.44;4876505;29;20142;-73
2023/01/03 02:51:49;;;;;;;40.60;24.60;;;;;;;12.04;56.60;102666.56;4858114;29;20051;-73
2023/01/03 02:54:20;;;;;;;41.45;24.95;;;;;;;11.86;56.83;102658.06;4858087;29;20119;-73
2023/01/03 02:56:59;;;;;;;45.15;24.17;;;;;;;11.99;56.59;102660.06;4857492;29;20465;-73
2023/01/03 02:59:52;;;;;;;45.25;25.80;;;;;;;11.90;56.60;102658.50;4857699;29;20093;-72
2023/01/03 03:02:20;;;;;;;49.50;24.25;;;;;;;11.86;56.61;102655.34;4857210;29;20054;-75
2023/01/03 03:04:50;;;;;;;40.30;24.90;;;;;;;11.86;56.71;102655.34;4857729;29;20057;-73
2023/01/03 03:07:22;;;;;;;45.65;25.35;;;;;;;11.85;56.45;102655.56;4857657;29;20042;-73
2023/01/03 03:15:25;;;;;;;46.15;25.25;;;;;;;11.87;57.21;102659.69;4857204;29;20186;-73
2023/01/03 03:17:55;;;;;;;47.92;26.52;;;;;;;12.07;56.68;102662.63;4889739;29;20060;-74
2023/01/03 03:26:02;;;;;;;49.65;27.77;;;;;;;12.12;56.50;102655.66;4958008;28;20053;-74
2023/01/03 03:28:34;;;;;;;44.67;26.75;;;;;;;12.02;56.75;102662.38;4979264;28;20039;-73
2023/01/03 03:31:06;;;;;;;44.00;24.33;;;;;;;12.08;56.28;102653.53;4992529;28;20035;-73
2023/01/03 03:33:36;;;;;;;43.25;27.63;;;;;;;12.04;56.51;102650.38;4992598;28;20525;-73
2023/01/03 03:36:07;;;;;;;49.70;27.03;;;;;;;11.96;56.97;102653.19;4992536;28;20066;-73
2023/01/03 03:38:39;;;;;;;44.10;25.17;;;;;;;11.75;57.30;102655.84;4975377;28;21058;-73
2023/01/03 03:47:27;;;;;;;51.10;25.02;;;;;;;11.78;57.81;102655.47;4925996;29;20055;-72
2023/01/03 03:49:58;;;;;;;43.97;26.85;;;;;;;11.93;57.15;102655.44;4932942;29;20051;-73
2023/01/03 03:52:27;;;;;;;44.80;26.98;;;;;;;11.96;56.53;102655.06;4932127;29;20061;-73
2023/01/03 03:55:00;;;;;;;44.70;25.45;;;;;;;11.90;56.68;102651.25;4932514;29;20512;-73
2023/01/03 03:57:33;;;;;;;42.70;25.42;;;;;;;11.89;56.88;102656.84;4917158;29;20035;-73
2023/01/03 04:00:07;;;;;;;48.67;27.90;;;;;;;11.83;56.94;102663.00;4932010;29;20547;-74
2023/01/03 04:02:34;;;;;;;43.00;26.70;;;;;;;12.00;56.58;102656.34;4931898;29;20397;-72
2023/01/03 04:05:04;;;;;;;42.80;25.50;;;;;;;12.14;56.39;102664.41;4916841;29;20119;-73
2023/01/03 04:07:30;;;;;;;53.67;28.20;;;;;;;12.07;56.76;102671.56;4932099;29;20198;-73
2023/01/03 04:09:55;;;;;;;45.25;27.58;;;;;;;12.20;56.63;102668.19;4932129;29;20040;-73
2023/01/03 04:12:21;;;;;;;41.53;25.58;;;;;;;12.06;56.92;102672.59;4931884;29;20528;-72
2023/01/03 04:14:46;;;;;;;39.50;25.45;;;;;;;12.20;56.33;102674.41;4931965;29;20134;-73
2023/01/03 04:17:12;;;;;;;50.03;28.77;;;;;;;11.99;56.76;102678.94;4915714;29;20417;-72
2023/01/03 04:19:57;;;;;;;46.03;26.08;;;;;;;11.81;57.22;102683.88;4932605;29;20110;-75
2023/01/03 04:22:23;;;;;;;45.63;26.15;;;;;;;11.98;57.37;102688.03;5011658;28;20124;-72
2023/01/03 04:24:48;;;;;;;42.03;26.67;;;;;;;12.13;56.49;102686.13;5011773;28;20065;-75
2023/01/03 04:27:14;;;;;;;41.45;26.63;;;;;;;12.25;56.33;102687.28;5021003;28;20433;-73
2023/01/03 04:29:39;;;;;;;41.38;26.10;;;;;;;12.29;56.44;102684.03;5030927;28;20056;-71
2023/01/03 04:32:05;;;;;;;44.17;24.60;;;;;;;12.21;56.30;102686.84;5031949;28;20041;-73
2023/01/03 04:34:30;;;;;;;37.47;24.75;;;;;;;12.12;56.90;102687.16;5031253;28;20450;-74
2023/01/03 04:36:56;;;;;;;45.78;26.23;;;;;;;12.22;56.41;102676.91;5031365;28;20129;-71
2023/01/03 04:39:21;;;;;;;38.03;24.27;;;;;;;12.01;56.64;102682.28;5031584;28;20076;-72
2023/01/03 04:41:47;;;;;;;36.67;24.45;;;;;;;12.12;56.32;102688.00;5031604;28;20053;-73
2023/01/03 04:44:12;;;;;;;40.15;24.65;;;;;;;12.01;56.58;102693.06;5031826;28;20053;-73
2023/01/03 04:46:39;;;;;;;40.03;25.58;;;;;;;12.09;56.63;102692.91;5032428;28;20037;-73
2023/01/03 04:49:06;;;;;;;42.40;24.48;;;;;;;11.91;57.62;102692.50;5021085;28;20026;-72
2023/01/03 04:51:31;;;;;;;40.17;25.85;;;;;;;12.13;57.07;102694.22;5015104;28;20041;-75
2023/01/03 04:53:57;;;;;;;46.20;26.23;;;;;;;12.14;57.28;102695.88;5014949;28;20082;-74
2023/01/03 04:56:28;;;;;;;47.72;26.20;;;;;;;11.86;57.59;102686.84;5014979;28;20498;-74
2023/01/03 04:58:54;;;;;;;46.50;29.17;;;;;;;11.27;60.52;102686.84;5016095;28;20529;-73
2023/01/03 05:01:20;;;;;;;132.73;32.25;;;;;;;11.44;59.63;102691.03;5012244;28;20038;-73
2023/01/03 05:03:46;;;;;;;160.57;29.27;;;;;;;11.30;61.13;102691.84;5014766;28;20045;-73
2023/01/03 05:06:12;;;;;;;176.70;29.92;;;;;;;11.80;59.12;102692.97;5015303;28;20045;-71
2023/01/03 05:08:37;;;;;;;216.15;29.10;;;;;;;11.39;60.68;102698.00;5014628;28;20413;-73
2023/01/03 05:11:04;;;;;;;148.10;27.08;;;;;;;11.78;59.85;102698.56;5015040;28;20116;-73
2023/01/03 05:13:31;;;;;;;207.50;27.75;;;;;;;11.09;61.71;102694.44;5014686;28;20038;-72
2023/01/03 05:16:03;;;;;;;116.85;24.92;;;;;;;10.80;62.47;102690.84;5014500;28;20042;-73
2023/01/03 05:18:45;;;;;;;134.18;23.75;;;;;;;10.96;61.27;102690.69;5014986;28;20066;-73
2023/01/03 05:26:48;;;;;;;180.20;21.90;;;;;;;10.76;61.49;102703.81;5014271;28;20045;-75
2023/01/03 05:29:17;;;;;;;131.10;21.83;;;;;;;11.31;60.33;102703.47;5014256;28;20036;-74
2023/01/03 05:31:43;;;;;;;146.40;23.30;;;;;;;11.40;58.97;102707.72;5014974;28;20470;-72
2023/01/03 05:34:08;;;;;;;157.65;23.23;;;;;;;10.82;60.72;102700.41;5014123;28;20129;-74
2023/01/03 05:36:34;;;;;;;81.10;19.85;;;;;;;10.60;61.37;102707.47;5014310;28;20085;-73
2023/01/03 05:38:59;;;;;;;142.98;22.58;;;;;;;11.12;59.79;102698.63;5014371;28;20088;-74
2023/01/03 05:44:08;;;;;;;110.32;20.08;;;;;;;10.40;61.35;102694.69;5019247;28;20584;-76
2023/01/03 05:46:34;;;;;;;194.00;22.77;;;;;;;10.43;62.32;102708.63;5034081;28;20049;-74
2023/01/03 05:49:23;;;;;;;98.97;21.95;;;;;;;10.98;61.11;102702.09;5028195;28;20068;-73
2023/01/03 05:51:48;;;;;;;223.13;25.88;;;;;;;10.80;62.16;102706.97;5014393;28;20042;-74
2023/01/03 05:54:15;;;;;;;185.07;24.50;;;;;;;11.35;60.43;102716.38;5013921;28;20078;-73
2023/01/03 05:56:41;;;;;;;222.75;26.70;;;;;;;11.75;59.60;102716.97;5013926;28;20172;-75
2023/01/03 05:59:07;;;;;;;123.25;25.60;;;;;;;11.24;61.06;102718.69;5013053;28;20034;-74
2023/01/03 06:01:33;;;;;;;187.43;27.48;;;;;;;11.94;59.47;102719.06;5013203;28;20395;-73
2023/01/03 06:04:14;;;;;;;121.32;26.52;;;;;;;11.25;61.45;102721.19;5013483;28;20038;-73
2023/01/03 06:06:39;;;;;;;162.18;26.67;;;;;;;11.56;61.83;102731.78;5013423;28;20250;-73
2023/01/03 06:09:04;;;;;;;127.47;28.50;;;;;;;11.39;62.92;102716.81;5013051;28;20089;-74
2023/01/03 06:11:30;;;;;;;146.45;28.80;;;;;;;11.24;63.48;102721.38;5013288;28;20502;-74
2023/01/03 06:13:55;;;;;;;157.85;30.17;;;;;;;11.56;63.65;102725.56;5013478;28;20033;-73
2023/01/03 06:19:42;;;;;;;117.43;32.38;;;;;;;11.47;64.05;102708.66;5012828;28;20073;-73
2023/01/03 06:22:07;;;;;;;103.22;35.03;;;;;;;11.66;64.80;102709.97;5012673;28;20506;-74
2023/01/03 06:24:33;;;;;;;98.95;36.25;;;;;;;12.34;62.74;102703.16;5013176;28;20121;-73
2023/01/03 06:26:58;;;;;;;99.70;36.83;;;;;;;12.77;60.79;102703.16;5012611;28;20050;-74
2023/01/03 06:29:23;;;;;;;105.75;39.05;;;;;;;12.93;60.36;102705.59;5027547;28;20088;-73
2023/01/03 06:31:49;;;;;;;106.68;41.75;;;;;;;12.94;60.47;102709.94;5013457;28;20105;-74
2023/01/03 06:34:14;;;;;;;106.60;40.28;;;;;;;12.61;61.44;102708.81;5012976;28;20120;-73
2023/01/03 06:36:40;;;;;;;103.85;39.35;;;;;;;12.65;62.25;102705.56;5012741;28;20045;-73
2023/01/03 06:39:05;;;;;;;101.13;40.88;;;;;;;12.77;60.83;102697.78;5013017;28;20061;-74
2023/01/03 06:41:30;;;;;;;105.97;40.97;;;;;;;12.40;62.16;102698.88;5013599;28;20113;-73
2023/01/03 06:43:56;;;;;;;100.05;41.00;;;;;;;12.66;62.14;102701.81;5013977;28;20521;-74
2023/01/03 06:54:40;;;;;;;87.93;40.33;;;;;;;13.25;60.37;102709.63;5013653;28;20406;-73
2023/01/03 06:57:06;;;;;;;93.50;40.42;;;;;;;13.02;60.96;102707.09;5013097;28;20046;-74
2023/01/03 06:59:31;;;;;;;93.65;41.83;;;;;;;13.35;59.50;102705.50;5013012;28;20402;-75
2023/01/03 07:01:57;;;;;;;100.45;44.90;;;;;;;12.90;61.25;102706.81;5013977;28;20117;-74
2023/01/03 07:04:23;;;;;;;98.90;43.72;;;;;;;12.59;62.45;102708.19;5012848;28;20041;-74
2023/01/03 07:06:49;;;;;;;94.63;43.88;;;;;;;13.43;60.09;102693.72;5015293;28;20042;-73
2023/01/03 07:09:15;;;;;;;99.35;43.75;;;;;;;13.00;60.16;102703.78;5013416;28;20038;-74
2023/01/03 07:11:41;;;;;;;102.35;48.78;;;;;;;12.94;61.48;102710.78;5013309;28;20038;-73
2023/01/03 07:14:08;;;;;;;95.32;46.13;;;;;;;12.94;61.23;102708.09;5013976;28;20449;-76
2023/01/03 07:16:42;;;;;;;100.13;45.17;;;;;;;13.60;59.44;102704.00;4996136;28;20034;-74
2023/01/03 07:19:11;;;;;;;97.95;46.20;;;;;;;14.01;58.38;102707.50;5012829;28;20034;-74
2023/01/03 07:21:37;;;;;;;105.47;49.20;;;;;;;13.51;60.02;102704.34;5010195;28;20056;-75
2023/01/03 07:24:04;;;;;;;106.35;48.88;;;;;;;12.96;61.21;102711.44;5014842;28;20033;-74
2023/01/03 07:26:32;;;;;;;91.25;46.70;;;;;;;13.73;59.32;102695.13;5016780;28;20065;-75
2023/01/03 07:28:59;;;;;;;98.13;47.05;;;;;;;13.81;58.80;102694.97;5010728;28;20059;-74
2023/01/03 07:31:24;;;;;;;101.72;47.95;;;;;;;13.33;59.15;102682.44;5009960;28;20580;-74
2023/01/03 07:33:51;;;;;;;104.40;49.95;;;;;;;13.84;58.08;102697.25;5008744;28;20041;-76
2023/01/03 07:36:18;;;;;;;104.50;49.60;;;;;;;13.66;58.31;102697.78;5015381;28;20029;-74
2023/01/03 07:38:45;;;;;;;105.30;49.88;;;;;;;13.76;58.87;102695.56;5007929;28;20034;-75
2023/01/03 07:41:12;;;;;;;104.95;52.58;;;;;;;13.75;57.86;102701.19;5008987;28;20026;-75
2023/01/03 07:43:40;;;;;;;108.18;52.10;;;;;;;13.99;57.89;102704.19;5009799;28;20033;-73
2023/01/03 07:46:18;;;;;;;97.53;47.97;;;;;;;14.10;57.27;102689.25;4992101;28;20100;-73
2023/01/03 07:48:45;;;;;;;100.22;48.97;;;;;;;14.17;57.20;102700.91;5008464;28;20053;-73
2023/01/03 07:51:12;;;;;;;97.07;50.72;;;;;;;14.13;57.82;102705.09;5009059;28;20059;-73
2023/01/03 07:53:40;;;;;;;103.75;51.70;;;;;;;14.26;57.47;102701.56;5009140;28;20041;-73
2023/01/03 07:56:11;;;;;;;99.78;49.10;;;;;;;14.09;58.15;102696.53;5009197;28;20470;-74
2023/01/03 07:58:37;;;;;;;100.95;52.95;;;;;;;14.20;57.29;102692.41;5008750;28;20060;-73
2023/01/03 08:01:09;;;;;;;90.95;48.40;;;;;;;14.41;56.74;102697.69;5008663;28;20576;-73
2023/01/03 08:03:35;;;;;;;110.38;52.78;;;;;;;14.23;57.24;102710.91;5008388;28;20506;-74
2023/01/03 08:06:21;;;;;;;93.50;48.88;;;;;;;14.43;56.71;102703.72;5008193;28;20044;-73
2023/01/03 08:13:16;;;;;;;90.65;48.47;;;;;;;14.35;56.74;102705.81;5008438;28;20044;-75
2023/01/03 08:14:20;;;;;;;94.13;49.33;;;;;;;14.50;56.54;102706.44;5025831;28;20053;-73
2023/01/03 08:16:45;;;;;;;94.20;48.53;;;;;;;14.16;57.05;102704.66;5029170;28;20021;-73
2023/01/03 08:19:11;;;;;;;95.97;50.40;;;;;;;14.43;56.59;102708.28;5026545;28;20038;-73
2023/01/03 08:21:36;;;;;;;86.55;48.60;;;;;;;14.40;56.84;102704.16;5011285;28;20034;-75
2023/01/03 08:24:02;;;;;;;97.85;50.00;;;;;;;14.06;57.63;102715.03;5014086;28;20041;-74
2023/01/03 08:26:27;;;;;;;90.65;47.40;;;;;;;13.85;57.95;102707.03;4992484;28;20040;-73
2023/01/03 08:28:53;;;;;;;88.15;49.53;;;;;;;13.98;58.44;102720.59;5016824;28;20045;-71
2023/01/03 08:31:22;;;;;;;97.88;50.20;;;;;;;14.35;56.92;102709.31;5013526;28;20037;-70
2023/01/03 08:33:53;;;;;;;98.30;51.80;;;;;;;14.11;57.57;102709.88;4996578;28;20034;-72
2023/01/03 08:36:20;;;;;;;94.47;50.80;;;;;;;13.92;58.42;102705.19;5013330;28;20325;-71
2023/01/03 08:38:51;;;;;;;94.00;49.20;;;;;;;13.99;58.39;102706.88;5013764;28;20037;-72
2023/01/03 08:41:21;;;;;;;96.75;50.38;;;;;;;14.13;57.62;102705.09;5014133;28;20406;-71
2023/01/03 08:43:48;;;;;;;98.28;49.95;;;;;;;13.47;59.25;102712.03;5013777;28;20021;-73
2023/01/03 08:46:16;;;;;;;92.60;49.65;;;;;;;13.51;58.84;102712.47;5013879;28;20206;-70
2023/01/03 08:48:42;;;;;;;98.35;48.15;;;;;;;13.94;58.22;102722.03;5026556;28;20053;-69
2023/01/03 08:51:08;;;;;;;98.63;47.03;;;;;;;13.51;59.65;102724.09;4996030;28;20117;-71
2023/01/03 08:53:33;;;;;;;96.75;48.08;;;;;;;13.93;58.40;102723.09;5013689;28;20486;-72
2023/01/03 08:55:59;;;;;;;93.45;49.53;;;;;;;14.39;57.17;102712.44;5014269;28;20538;-70
2023/01/03 08:58:25;;;;;;;93.70;48.42;;;;;;;14.23;57.72;102713.63;5013609;28;20113;-74
2023/01/03 09:00:50;;;;;;;95.13;46.33;;;;;;;14.39;57.09;102710.56;5013460;28;20042;-71
2023/01/03 09:03:15;;;;;;;89.97;44.15;;;;;;;13.92;58.29;102726.81;5013762;28;20121;-72
2023/01/03 09:05:41;;;;;;;86.60;46.20;;;;;;;14.19;57.95;102716.94;5012372;28;20088;-72
2023/01/03 09:08:07;;;;;;;80.65;43.15;;;;;;;14.11;58.57;102716.06;5013273;28;20042;-70
2023/01/03 09:10:33;;;;;;;87.22;43.70;;;;;;;14.56;57.03;102714.59;5013324;28;20026;-69
2023/01/03 09:13:01;;;;;;;89.82;45.63;;;;;;;14.51;57.13;102711.66;5013749;28;20036;-70
2023/01/03 09:15:26;;;;;;;88.82;45.20;;;;;;;14.46;57.60;102711.44;5013410;28;20038;-71
2023/01/03 09:17:52;;;;;;;88.22;44.60;;;;;;;14.46;57.62;102716.00;5012636;28;20036;-69
2023/01/03 09:20:17;;;;;;;84.85;44.67;;;;;;;14.46;56.83;102716.00;5010450;28;20033;-70
2023/01/03 09:22:43;;;;;;;81.60;42.38;;;;;;;14.53;57.11;102712.28;5010645;28;20018;-71
2023/01/03 09:25:09;;;;;;;87.43;43.30;;;;;;;14.05;58.62;102714.19;5028419;28;20532;-71
2023/01/03 09:27:34;;;;;;;82.43;41.60;;;;;;;14.55;57.61;102704.78;5010242;28;20030;-70
2023/01/03 09:30:00;;;;;;;84.05;42.85;;;;;;;14.59;56.84;102697.94;5010761;28;20061;-70
2023/01/03 09:32:25;;;;;;;78.30;40.95;;;;;;;14.70;56.87;102700.00;5009736;28;20085;-70
2023/01/03 09:34:51;;;;;;;86.32;40.60;;;;;;;14.31;58.38;102691.03;5008550;28;20038;-71
2023/01/03 09:37:16;;;;;;;68.20;37.58;;;;;;;14.69;57.22;102683.97;5008358;28;20053;-70
2023/01/03 09:39:41;;;;;;;74.28;40.08;;;;;;;13.99;57.98;102687.97;5009509;28;20477;-71
2023/01/03 09:45:06;;;;;;;73.95;37.38;;;;;;;13.95;59.01;102692.09;5009833;28;20052;-70
2023/01/03 09:47:35;;;;;;;73.38;37.20;;;;;;;13.03;61.32;102701.53;5015968;28;20029;-70
2023/01/03 09:50:01;;;;;;;67.03;36.65;;;;;;;14.19;58.58;102698.84;5015054;28;20040;-71
2023/01/03 10:04:08;;;;;;;50.80;29.98;;;;;;;13.65;61.18;102698.84;5006676;28;20037;-70
2023/01/03 10:06:39;;;;;;;46.58;28.25;;;;;;;13.87;60.64;102700.41;5007475;28;20033;-71
2023/01/03 10:09:18;;;;;;;51.58;28.65;;;;;;;13.53;61.80;102697.75;5005522;28;20045;-69
2023/01/03 10:11:56;;;;;;;53.65;28.92;;;;;;;14.62;59.11;102708.31;5010037;28;20461;-71
2023/01/03 10:14:43;;;;;;;47.97;27.52;;;;;;;14.53;58.64;102703.31;5008326;28;20205;-70
2023/01/03 10:17:22;;;;;;;46.28;28.35;;;;;;;13.96;60.14;102706.47;5009242;28;20542;-69
2023/01/03 10:20:06;;;;;;;46.92;28.08;;;;;;;14.32;60.05;102703.50;5009042;28;20144;-70
2023/01/03 10:22:32;;;;;;;44.88;26.92;;;;;;;14.37;60.27;102706.44;5008841;28;20566;-70
2023/01/03 10:25:03;;;;;;;47.00;26.27;;;;;;;14.14;60.88;102695.91;5009201;28;20042;-70
2023/01/03 10:27:33;;;;;;;41.13;25.40;;;;;;;14.27;60.09;102687.03;4988605;28;20076;-71
2023/01/03 10:30:01;;;;;;;40.15;25.73;;;;;;;14.77;58.60;102687.34;5002341;28;20041;-70
2023/01/03 10:32:49;;;;;;;45.05;27.42;;;;;;;14.53;59.62;102684.38;5006354;28;20030;-70
2023/01/03 10:35:30;;;;;;;48.80;26.13;;;;;;;14.33;60.41;102687.06;5007259;28;20538;-71
2023/01/03 10:37:57;;;;;;;44.58;26.58;;;;;;;14.35;60.39;102686.88;5005250;28;20073;-71
2023/01/03 10:40:40;;;;;;;54.88;26.27;;;;;;;13.95;61.50;102675.88;5007771;28;20037;-70
2023/01/03 10:43:18;;;;;;;45.05;26.10;;;;;;;14.00;62.36;102668.00;5007156;28;20450;-69
2023/01/03 10:45:55;;;;;;;45.88;25.65;;;;;;;14.90;59.00;102670.25;5006917;28;20133;-71
2023/01/03 10:48:21;;;;;;;46.60;27.73;;;;;;;14.42;60.97;102664.19;5007389;28;20034;-69
2023/01/03 10:50:49;;;;;;;44.40;25.30;;;;;;;14.60;60.25;102659.00;4989014;28;20045;-70
2023/01/03 10:53:18;;;;;;;44.85;25.50;;;;;;;14.21;61.56;102658.91;5006014;28;20018;-70
2023/01/03 10:55:47;;;;;;;54.20;26.83;;;;;;;14.04;62.17;102661.16;5007116;28;20061;-71
2023/01/03 10:58:25;;;;;;;43.63;24.15;;;;;;;13.79;64.07;102656.50;5006813;28;20037;-69
2023/01/03 11:00:57;;;;;;;47.95;23.95;;;;;;;13.82;63.04;102650.69;5002569;28;20420;-69
2023/01/03 11:03:24;;;;;;;41.47;24.55;;;;;;;14.59;60.91;102654.63;5004182;28;20061;-70
2023/01/03 11:05:58;;;;;;;58.35;27.45;;;;;;;14.51;61.32;102649.41;5006515;28;20045;-71
2023/01/03 11:08:43;;;;;;;42.17;23.70;;;;;;;13.85;63.98;102651.13;5006500;28;20548;-71
2023/01/03 11:11:26;;;;;;;53.03;25.95;;;;;;;14.17;61.62;102646.84;5006350;28;20057;-70
2023/01/03 11:13:51;;;;;;;56.75;26.05;;;;;;;14.50;60.96;102652.34;5006139;28;20041;-70
2023/01/03 11:16:18;;;;;;;50.22;25.33;;;;;;;14.97;59.63;102657.53;5018895;28;20051;-71
2023/01/03 11:18:58;;;;;;;45.03;25.23;;;;;;;15.17;59.37;102652.94;5006951;28;20262;-72
2023/01/03 11:21:47;;;;;;;44.45;24.65;;;;;;;14.68;61.11;102658.78;5001810;28;20044;-71
2023/01/03 11:24:47;;;;;;;52.25;27.10;;;;;;;15.21;60.03;102656.91;5006757;28;20044;-75
2023/01/03 11:27:45;;;;;;;55.35;26.45;;;;;;;14.77;60.41;102667.53;4941994;28;20161;-77
2023/01/03 11:30:22;;;;;;;49.95;24.48;;;;;;;14.11;62.86;102655.78;4939275;29;20036;-73
2023/01/03 11:33:05;;;;;;;45.65;25.98;;;;;;;14.82;60.91;102660.47;4929448;29;20043;-72
2023/01/03 11:35:56;;;;;;;50.80;24.75;;;;;;;15.11;60.33;102655.66;4932359;29;20046;-72
2023/01/03 11:38:46;;;;;;;52.15;25.67;;;;;;;14.48;61.61;102651.72;4873425;29;20550;-71
2023/01/03 11:41:34;;;;;;;47.55;26.02;;;;;;;15.46;59.45;102659.78;4875400;29;20115;-73
2023/01/03 11:44:31;;;;;;;55.42;24.90;;;;;;;15.65;58.19;102658.88;4874078;29;20074;-72
2023/01/03 11:47:02;;;;;;;47.13;23.73;;;;;;;15.25;59.82;102657.28;4872112;29;20041;-72
2023/01/03 11:49:30;;;;;;;;;;;;;;;14.69;60.97;102649.66;4873511;29;20048;-70
2023/01/03 11:52:17;;;;;;;47.22;22.17;;;;;;;14.09;63.36;102637.03;4866103;29;19923;-71
2023/01/03 11:55:07;;;;;;;48.53;25.48;;;;;;;14.77;61.69;102638.63;4865515;29;20456;-71
2023/01/03 11:57:55;;;;;;;40.30;22.50;;;;;;;14.60;62.13;102636.53;4873478;29;20089;-71
2023/01/03 12:00:39;;;;;;;38.65;21.98;;;;;;;13.72;65.20;102636.75;4872156;29;20570;-72
2023/01/03 12:03:34;;;;;;;37.53;22.45;;;;;;;14.25;63.85;102633.13;4887473;29;20048;-71
2023/01/03 12:06:16;;;;;;;43.05;21.67;;;;;;;14.23;64.18;102628.97;4859765;29;20519;-72
2023/01/03 12:08:48;;;;;;;45.42;21.75;;;;;;;14.36;63.62;102623.59;4859768;29;20042;-71
2023/01/03 12:11:35;;;;;;;54.70;24.45;;;;;;;14.29;63.41;102618.19;4859502;29;20076;-72
2023/01/03 12:14:18;;;;;;;42.75;22.55;;;;;;;14.71;61.55;102614.25;4860327;29;20041;-71
2023/01/03 12:16:51;;;;;;;38.97;20.38;;;;;;;14.63;62.95;102614.47;4930577;29;20051;-71
2023/01/03 12:19:28;;;;;;;41.03;20.90;;;;;;;14.46;63.52;102614.06;4933934;29;20044;-72
2023/01/03 12:22:09;;;;;;;48.13;22.10;;;;;;;15.03;62.11;102624.22;4934285;29;20066;-71
2023/01/03 12:24:38;;;;;;;43.63;20.35;;;;;;;14.68;62.98;102620.09;4934600;29;20044;-71
2023/01/03 12:27:12;;;;;;;34.35;19.25;;;;;;;14.46;63.85;102624.03;4934203;29;20091;-72
2023/01/03 12:30:05;;;;;;;37.05;20.33;;;;;;;14.65;62.83;102613.22;4934178;29;20232;-71